sensor_id;sensor_type;location;lat;lon;timestamp;P1;durP1;ratioP1;P2;durP2;ratioP2
74170;SDS011;62526;50.948;6.590;2023-04-23T00:01:05;19.17;;;14.23;;
74170;SDS011;62526;50.948;6.590;2023-04-23T00:03:32;19.17;;;14.43;;
74170;SDS011;62526;50.948;6.590;2023-04-23T00:05:59;22.90;;;15.30;;
74170;SDS011;62526;50.948;6.590;2023-04-23T00:08:26;20.67;;;15.50;;
74170;SDS011;62526;50.948;6.590;2023-04-23T00:10:52;21.43;;;15.50;;
74170;SDS011;62526;50.948;6.590;2023-04-23T00:13:19;20.07;;;15.17;;
74170;SDS011;62526;50.948;6.590;2023-04-23T00:15:46;21.70;;;15.63;;
74170;SDS011;62526;50.948;6.590;2023-04-23T00:18:13;19.87;;;14.97;;
74170;SDS011;62526;50.948;6.590;2023-04-23T00:20:40;20.70;;;15.37;;
74170;SDS011;62526;50.948;6.590;2023-04-23T00:23:06;24.43;;;15.43;;
74170;SDS011;62526;50.948;6.590;2023-04-23T00:25:33;24.90;;;15.93;;
74170;SDS011;62526;50.948;6.590;2023-04-23T00:27:59;22.53;;;15.97;;
74170;SDS011;62526;50.948;6.590;2023-04-23T00:30:26;21.03;;;14.57;;
74170;SDS011;62526;50.948;6.590;2023-04-23T00:35:28;20.97;;;15.23;;
74170;SDS011;62526;50.948;6.590;2023-04-23T00:37:55;18.80;;;14.77;;
74170;SDS011;62526;50.948;6.590;2023-04-23T00:40:22;22.83;;;15.50;;
74170;SDS011;62526;50.948;6.590;2023-04-23T00:42:49;20.40;;;15.00;;
74170;SDS011;62526;50.948;6.590;2023-04-23T00:45:15;19.80;;;15.37;;
74170;SDS011;62526;50.948;6.590;2023-04-23T00:47:41;21.47;;;16.07;;
74170;SDS011;62526;50.948;6.590;2023-04-23T00:50:08;24.77;;;16.73;;
74170;SDS011;62526;50.948;6.590;2023-04-23T00:52:35;19.47;;;14.93;;
74170;SDS011;62526;50.948;6.590;2023-04-23T00:55:01;21.70;;;15.70;;
74170;SDS011;62526;50.948;6.590;2023-04-23T00:57:28;22.87;;;16.00;;
74170;SDS011;62526;50.948;6.590;2023-04-23T00:59:55;23.20;;;16.90;;
74170;SDS011;62526;50.948;6.590;2023-04-23T01:02:21;24.13;;;16.10;;
74170;SDS011;62526;50.948;6.590;2023-04-23T01:04:48;23.60;;;16.13;;
74170;SDS011;62526;50.948;6.590;2023-04-23T01:07:15;18.73;;;13.93;;
74170;SDS011;62526;50.948;6.590;2023-04-23T01:09:42;17.67;;;13.47;;
74170;SDS011;62526;50.948;6.590;2023-04-23T01:12:09;20.60;;;15.37;;
74170;SDS011;62526;50.948;6.590;2023-04-23T01:14:36;21.53;;;15.07;;
74170;SDS011;62526;50.948;6.590;2023-04-23T01:17:02;20.00;;;14.43;;
74170;SDS011;62526;50.948;6.590;2023-04-23T01:19:28;19.57;;;14.60;;
74170;SDS011;62526;50.948;6.590;2023-04-23T01:21:55;23.17;;;16.80;;
74170;SDS011;62526;50.948;6.590;2023-04-23T01:24:22;20.93;;;15.60;;
74170;SDS011;62526;50.948;6.590;2023-04-23T01:26:48;23.40;;;16.83;;
74170;SDS011;62526;50.948;6.590;2023-04-23T01:29:15;20.97;;;15.87;;
74170;SDS011;62526;50.948;6.590;2023-04-23T01:31:41;24.97;;;18.33;;
74170;SDS011;62526;50.948;6.590;2023-04-23T01:34:08;27.60;;;18.57;;
74170;SDS011;62526;50.948;6.590;2023-04-23T01:36:35;26.97;;;17.27;;
74170;SDS011;62526;50.948;6.590;2023-04-23T01:39:01;25.00;;;17.90;;
74170;SDS011;62526;50.948;6.590;2023-04-23T01:41:28;27.83;;;18.07;;
74170;SDS011;62526;50.948;6.590;2023-04-23T01:43:55;29.20;;;18.20;;
74170;SDS011;62526;50.948;6.590;2023-04-23T01:46:21;27.20;;;18.60;;
74170;SDS011;62526;50.948;6.590;2023-04-23T01:48:48;25.53;;;19.03;;
74170;SDS011;62526;50.948;6.590;2023-04-23T01:51:14;30.63;;;19.47;;
74170;SDS011;62526;50.948;6.590;2023-04-23T01:53:41;30.03;;;20.57;;
74170;SDS011;62526;50.948;6.590;2023-04-23T01:56:08;29.27;;;20.17;;
74170;SDS011;62526;50.948;6.590;2023-04-23T01:58:34;31.57;;;21.70;;
74170;SDS011;62526;50.948;6.590;2023-04-23T02:01:01;29.50;;;20.13;;
74170;SDS011;62526;50.948;6.590;2023-04-23T02:03:28;28.57;;;20.63;;
74170;SDS011;62526;50.948;6.590;2023-04-23T02:05:54;31.03;;;21.63;;
74170;SDS011;62526;50.948;6.590;2023-04-23T02:08:21;28.93;;;20.83;;
74170;SDS011;62526;50.948;6.590;2023-04-23T02:10:47;30.30;;;20.40;;
74170;SDS011;62526;50.948;6.590;2023-04-23T02:13:14;28.83;;;20.83;;
74170;SDS011;62526;50.948;6.590;2023-04-23T02:15:41;27.97;;;19.43;;
74170;SDS011;62526;50.948;6.590;2023-04-23T02:18:07;28.57;;;19.50;;
74170;SDS011;62526;50.948;6.590;2023-04-23T02:20:34;29.23;;;19.67;;
74170;SDS011;62526;50.948;6.590;2023-04-23T02:23:01;27.40;;;18.47;;
74170;SDS011;62526;50.948;6.590;2023-04-23T02:25:27;27.73;;;19.70;;
74170;SDS011;62526;50.948;6.590;2023-04-23T02:27:54;29.10;;;18.33;;
74170;SDS011;62526;50.948;6.590;2023-04-23T02:30:20;31.80;;;20.57;;
74170;SDS011;62526;50.948;6.590;2023-04-23T02:35:28;28.77;;;20.10;;
74170;SDS011;62526;50.948;6.590;2023-04-23T02:37:54;30.63;;;21.63;;
74170;SDS011;62526;50.948;6.590;2023-04-23T02:40:21;29.53;;;20.67;;
74170;SDS011;62526;50.948;6.590;2023-04-23T02:42:48;32.07;;;21.37;;
74170;SDS011;62526;50.948;6.590;2023-04-23T02:45:14;34.67;;;22.93;;
74170;SDS011;62526;50.948;6.590;2023-04-23T02:47:41;33.87;;;21.63;;
74170;SDS011;62526;50.948;6.590;2023-04-23T02:50:08;34.00;;;22.60;;
74170;SDS011;62526;50.948;6.590;2023-04-23T02:52:34;39.20;;;23.23;;
74170;SDS011;62526;50.948;6.590;2023-04-23T02:55:01;34.37;;;22.67;;
74170;SDS011;62526;50.948;6.590;2023-04-23T02:57:28;32.40;;;22.43;;
74170;SDS011;62526;50.948;6.590;2023-04-23T02:59:54;34.53;;;21.33;;
74170;SDS011;62526;50.948;6.590;2023-04-23T03:02:21;35.57;;;23.67;;
74170;SDS011;62526;50.948;6.590;2023-04-23T03:04:47;35.17;;;22.10;;
74170;SDS011;62526;50.948;6.590;2023-04-23T03:07:15;32.57;;;22.60;;
74170;SDS011;62526;50.948;6.590;2023-04-23T03:09:41;32.40;;;21.97;;
74170;SDS011;62526;50.948;6.590;2023-04-23T03:12:08;33.20;;;21.40;;
74170;SDS011;62526;50.948;6.590;2023-04-23T03:14:35;32.23;;;21.57;;
74170;SDS011;62526;50.948;6.590;2023-04-23T03:17:01;30.93;;;22.10;;
74170;SDS011;62526;50.948;6.590;2023-04-23T03:19:28;30.43;;;20.70;;
74170;SDS011;62526;50.948;6.590;2023-04-23T03:21:54;27.67;;;19.90;;
74170;SDS011;62526;50.948;6.590;2023-04-23T03:24:21;25.57;;;18.50;;
74170;SDS011;62526;50.948;6.590;2023-04-23T03:26:48;29.40;;;19.27;;
74170;SDS011;62526;50.948;6.590;2023-04-23T03:29:14;27.43;;;19.03;;
74170;SDS011;62526;50.948;6.590;2023-04-23T03:31:41;25.97;;;18.73;;
74170;SDS011;62526;50.948;6.590;2023-04-23T03:34:07;25.37;;;17.33;;
74170;SDS011;62526;50.948;6.590;2023-04-23T03:36:34;25.00;;;18.40;;
74170;SDS011;62526;50.948;6.590;2023-04-23T03:39:01;28.60;;;18.93;;
74170;SDS011;62526;50.948;6.590;2023-04-23T03:41:27;24.33;;;17.63;;
74170;SDS011;62526;50.948;6.590;2023-04-23T03:43:54;24.10;;;18.57;;
74170;SDS011;62526;50.948;6.590;2023-04-23T03:46:20;26.27;;;19.13;;
74170;SDS011;62526;50.948;6.590;2023-04-23T03:48:47;29.60;;;19.17;;
74170;SDS011;62526;50.948;6.590;2023-04-23T03:51:14;28.27;;;18.73;;
74170;SDS011;62526;50.948;6.590;2023-04-23T03:53:40;26.33;;;18.67;;
74170;SDS011;62526;50.948;6.590;2023-04-23T03:56:07;27.57;;;18.63;;
74170;SDS011;62526;50.948;6.590;2023-04-23T03:58:33;25.73;;;17.57;;
74170;SDS011;62526;50.948;6.590;2023-04-23T04:01:00;27.67;;;18.90;;
74170;SDS011;62526;50.948;6.590;2023-04-23T04:03:27;23.97;;;18.47;;
74170;SDS011;62526;50.948;6.590;2023-04-23T04:05:53;24.73;;;17.77;;
74170;SDS011;62526;50.948;6.590;2023-04-23T04:08:20;24.83;;;18.63;;
74170;SDS011;62526;50.948;6.590;2023-04-23T04:10:46;24.63;;;18.63;;
74170;SDS011;62526;50.948;6.590;2023-04-23T04:13:13;24.03;;;17.63;;
74170;SDS011;62526;50.948;6.590;2023-04-23T04:15:40;23.93;;;17.67;;
74170;SDS011;62526;50.948;6.590;2023-04-23T04:18:06;25.27;;;17.50;;
74170;SDS011;62526;50.948;6.590;2023-04-23T04:20:33;24.10;;;16.97;;
74170;SDS011;62526;50.948;6.590;2023-04-23T04:22:59;22.97;;;17.07;;
74170;SDS011;62526;50.948;6.590;2023-04-23T04:25:26;23.70;;;17.03;;
74170;SDS011;62526;50.948;6.590;2023-04-23T04:27:53;26.83;;;17.17;;
74170;SDS011;62526;50.948;6.590;2023-04-23T04:30:19;23.20;;;17.83;;
74170;SDS011;62526;50.948;6.590;2023-04-23T04:35:25;27.63;;;18.20;;
74170;SDS011;62526;50.948;6.590;2023-04-23T04:37:51;24.50;;;17.30;;
74170;SDS011;62526;50.948;6.590;2023-04-23T04:40:18;24.00;;;16.57;;
74170;SDS011;62526;50.948;6.590;2023-04-23T04:42:45;23.93;;;15.80;;
74170;SDS011;62526;50.948;6.590;2023-04-23T04:45:11;20.70;;;16.03;;
74170;SDS011;62526;50.948;6.590;2023-04-23T04:47:38;20.40;;;16.10;;
74170;SDS011;62526;50.948;6.590;2023-04-23T04:50:05;22.83;;;15.43;;
74170;SDS011;62526;50.948;6.590;2023-04-23T04:52:32;20.17;;;15.67;;
74170;SDS011;62526;50.948;6.590;2023-04-23T04:54:58;19.47;;;14.53;;
74170;SDS011;62526;50.948;6.590;2023-04-23T04:57:25;22.70;;;15.20;;
74170;SDS011;62526;50.948;6.590;2023-04-23T04:59:52;19.30;;;15.17;;
74170;SDS011;62526;50.948;6.590;2023-04-23T05:02:18;19.90;;;14.32;;
74170;SDS011;62526;50.948;6.590;2023-04-23T05:04:45;17.87;;;14.77;;
74170;SDS011;62526;50.948;6.590;2023-04-23T05:07:11;20.53;;;14.00;;
74170;SDS011;62526;50.948;6.590;2023-04-23T05:09:38;22.40;;;14.53;;
74170;SDS011;62526;50.948;6.590;2023-04-23T05:12:05;18.15;;;14.60;;
74170;SDS011;62526;50.948;6.590;2023-04-23T05:14:32;20.77;;;15.07;;
74170;SDS011;62526;50.948;6.590;2023-04-23T05:16:59;19.13;;;13.80;;
74170;SDS011;62526;50.948;6.590;2023-04-23T05:19:25;20.93;;;14.97;;
74170;SDS011;62526;50.948;6.590;2023-04-23T05:21:52;19.60;;;14.37;;
74170;SDS011;62526;50.948;6.590;2023-04-23T05:24:19;21.43;;;13.67;;
74170;SDS011;62526;50.948;6.590;2023-04-23T05:26:45;18.00;;;14.13;;
74170;SDS011;62526;50.948;6.590;2023-04-23T05:29:12;16.03;;;13.20;;
74170;SDS011;62526;50.948;6.590;2023-04-23T05:31:38;19.20;;;13.80;;
74170;SDS011;62526;50.948;6.590;2023-04-23T05:34:05;17.30;;;13.03;;
74170;SDS011;62526;50.948;6.590;2023-04-23T05:36:32;17.20;;;12.43;;
74170;SDS011;62526;50.948;6.590;2023-04-23T05:38:58;19.07;;;14.07;;
74170;SDS011;62526;50.948;6.590;2023-04-23T05:41:25;17.87;;;13.43;;
74170;SDS011;62526;50.948;6.590;2023-04-23T05:43:51;17.50;;;13.17;;
74170;SDS011;62526;50.948;6.590;2023-04-23T05:46:18;18.15;;;13.23;;
74170;SDS011;62526;50.948;6.590;2023-04-23T05:48:45;15.33;;;12.50;;
74170;SDS011;62526;50.948;6.590;2023-04-23T05:51:11;18.30;;;11.97;;
74170;SDS011;62526;50.948;6.590;2023-04-23T05:53:38;14.83;;;12.07;;
74170;SDS011;62526;50.948;6.590;2023-04-23T05:56:04;18.50;;;14.83;;
74170;SDS011;62526;50.948;6.590;2023-04-23T05:58:31;16.90;;;12.13;;
74170;SDS011;62526;50.948;6.590;2023-04-23T06:00:58;14.75;;;11.43;;
74170;SDS011;62526;50.948;6.590;2023-04-23T06:03:24;15.07;;;11.48;;
74170;SDS011;62526;50.948;6.590;2023-04-23T06:05:51;12.70;;;11.17;;
74170;SDS011;62526;50.948;6.590;2023-04-23T06:08:17;14.10;;;11.15;;
74170;SDS011;62526;50.948;6.590;2023-04-23T06:10:45;13.35;;;11.35;;
74170;SDS011;62526;50.948;6.590;2023-04-23T06:13:11;17.12;;;11.57;;
74170;SDS011;62526;50.948;6.590;2023-04-23T06:15:37;17.70;;;12.40;;
74170;SDS011;62526;50.948;6.590;2023-04-23T06:18:04;12.60;;;10.50;;
74170;SDS011;62526;50.948;6.590;2023-04-23T06:20:31;13.90;;;11.02;;
74170;SDS011;62526;50.948;6.590;2023-04-23T06:22:57;14.77;;;10.50;;
74170;SDS011;62526;50.948;6.590;2023-04-23T06:25:24;12.52;;;10.30;;
74170;SDS011;62526;50.948;6.590;2023-04-23T06:27:50;14.65;;;9.50;;
74170;SDS011;62526;50.948;6.590;2023-04-23T06:30:17;9.82;;;8.80;;
74170;SDS011;62526;50.948;6.590;2023-04-23T06:35:26;12.45;;;8.70;;
74170;SDS011;62526;50.948;6.590;2023-04-23T06:37:52;11.00;;;8.18;;
74170;SDS011;62526;50.948;6.590;2023-04-23T06:40:19;12.05;;;8.82;;
74170;SDS011;62526;50.948;6.590;2023-04-23T06:42:45;11.18;;;8.35;;
74170;SDS011;62526;50.948;6.590;2023-04-23T06:45:12;11.88;;;8.70;;
74170;SDS011;62526;50.948;6.590;2023-04-23T06:47:39;10.48;;;7.82;;
74170;SDS011;62526;50.948;6.590;2023-04-23T06:50:06;11.80;;;8.23;;
74170;SDS011;62526;50.948;6.590;2023-04-23T06:52:33;9.55;;;7.60;;
74170;SDS011;62526;50.948;6.590;2023-04-23T06:54:59;9.02;;;7.47;;
74170;SDS011;62526;50.948;6.590;2023-04-23T06:57:26;9.30;;;7.50;;
74170;SDS011;62526;50.948;6.590;2023-04-23T06:59:53;11.63;;;7.47;;
74170;SDS011;62526;50.948;6.590;2023-04-23T07:02:19;10.10;;;6.93;;
74170;SDS011;62526;50.948;6.590;2023-04-23T07:04:46;8.07;;;7.28;;
74170;SDS011;62526;50.948;6.590;2023-04-23T07:07:12;8.32;;;6.70;;
74170;SDS011;62526;50.948;6.590;2023-04-23T07:09:39;10.85;;;6.87;;
74170;SDS011;62526;50.948;6.590;2023-04-23T07:12:06;11.23;;;6.60;;
74170;SDS011;62526;50.948;6.590;2023-04-23T07:14:32;8.23;;;6.82;;
74170;SDS011;62526;50.948;6.590;2023-04-23T07:17:00;10.65;;;6.78;;
74170;SDS011;62526;50.948;6.590;2023-04-23T07:19:26;7.82;;;6.50;;
74170;SDS011;62526;50.948;6.590;2023-04-23T07:21:53;10.77;;;6.90;;
74170;SDS011;62526;50.948;6.590;2023-04-23T07:24:19;9.00;;;6.55;;
74170;SDS011;62526;50.948;6.590;2023-04-23T07:26:46;8.65;;;5.65;;
74170;SDS011;62526;50.948;6.590;2023-04-23T07:29:13;7.28;;;5.15;;
74170;SDS011;62526;50.948;6.590;2023-04-23T07:31:39;6.03;;;5.43;;
74170;SDS011;62526;50.948;6.590;2023-04-23T07:34:07;7.80;;;5.15;;
74170;SDS011;62526;50.948;6.590;2023-04-23T07:36:33;6.32;;;4.65;;
74170;SDS011;62526;50.948;6.590;2023-04-23T07:39:00;7.15;;;5.18;;
74170;SDS011;62526;50.948;6.590;2023-04-23T07:41:27;8.70;;;4.97;;
74170;SDS011;62526;50.948;6.590;2023-04-23T07:43:53;6.03;;;4.30;;
74170;SDS011;62526;50.948;6.590;2023-04-23T07:46:20;6.53;;;4.90;;
74170;SDS011;62526;50.948;6.590;2023-04-23T07:48:46;6.30;;;4.75;;
74170;SDS011;62526;50.948;6.590;2023-04-23T07:51:13;8.95;;;4.47;;
74170;SDS011;62526;50.948;6.590;2023-04-23T07:53:40;6.53;;;5.03;;
74170;SDS011;62526;50.948;6.590;2023-04-23T07:56:06;7.85;;;4.57;;
74170;SDS011;62526;50.948;6.590;2023-04-23T07:58:33;5.40;;;4.18;;
74170;SDS011;62526;50.948;6.590;2023-04-23T08:01:00;6.70;;;4.25;;
74170;SDS011;62526;50.948;6.590;2023-04-23T08:03:27;7.35;;;4.60;;
74170;SDS011;62526;50.948;6.590;2023-04-23T08:05:53;8.15;;;4.50;;
74170;SDS011;62526;50.948;6.590;2023-04-23T08:08:19;5.85;;;4.20;;
74170;SDS011;62526;50.948;6.590;2023-04-23T08:10:46;7.72;;;4.22;;
74170;SDS011;62526;50.948;6.590;2023-04-23T08:13:12;7.97;;;4.40;;
74170;SDS011;62526;50.948;6.590;2023-04-23T08:15:39;5.35;;;3.67;;
74170;SDS011;62526;50.948;6.590;2023-04-23T08:18:06;7.87;;;3.65;;
74170;SDS011;62526;50.948;6.590;2023-04-23T08:20:33;9.32;;;3.87;;
74170;SDS011;62526;50.948;6.590;2023-04-23T08:22:59;4.28;;;3.37;;
74170;SDS011;62526;50.948;6.590;2023-04-23T08:25:26;9.63;;;3.75;;
74170;SDS011;62526;50.948;6.590;2023-04-23T08:27:52;7.47;;;3.58;;
74170;SDS011;62526;50.948;6.590;2023-04-23T08:30:19;6.57;;;3.33;;
74170;SDS011;62526;50.948;6.590;2023-04-23T08:32:48;3.17;;;2.40;;
74170;SDS011;62526;50.948;6.590;2023-04-23T08:35:12;6.68;;;3.28;;
74170;SDS011;62526;50.948;6.590;2023-04-23T08:37:42;8.48;;;3.15;;
74170;SDS011;62526;50.948;6.590;2023-04-23T08:40:09;4.30;;;3.03;;
74170;SDS011;62526;50.948;6.590;2023-04-23T08:42:39;4.30;;;2.50;;
74170;SDS011;62526;50.948;6.590;2023-04-23T08:45:03;5.95;;;2.55;;
74170;SDS011;62526;50.948;6.590;2023-04-23T08:47:31;4.93;;;2.83;;
74170;SDS011;62526;50.948;6.590;2023-04-23T08:49:58;6.25;;;2.42;;
74170;SDS011;62526;50.948;6.590;2023-04-23T08:52:25;4.95;;;2.25;;
74170;SDS011;62526;50.948;6.590;2023-04-23T08:54:52;8.15;;;2.45;;
74170;SDS011;62526;50.948;6.590;2023-04-23T08:57:19;4.50;;;2.12;;
74170;SDS011;62526;50.948;6.590;2023-04-23T08:59:45;5.85;;;2.37;;
74170;SDS011;62526;50.948;6.590;2023-04-23T09:02:12;5.80;;;2.10;;
74170;SDS011;62526;50.948;6.590;2023-04-23T09:04:38;4.40;;;2.35;;
74170;SDS011;62526;50.948;6.590;2023-04-23T09:07:05;4.68;;;2.00;;
74170;SDS011;62526;50.948;6.590;2023-04-23T09:09:32;5.90;;;2.17;;
74170;SDS011;62526;50.948;6.590;2023-04-23T09:12:00;5.82;;;2.00;;
74170;SDS011;62526;50.948;6.590;2023-04-23T09:14:27;4.53;;;2.15;;
74170;SDS011;62526;50.948;6.590;2023-04-23T09:16:53;7.57;;;1.92;;
74170;SDS011;62526;50.948;6.590;2023-04-23T09:19:20;6.57;;;2.00;;
74170;SDS011;62526;50.948;6.590;2023-04-23T09:21:47;3.53;;;1.90;;
74170;SDS011;62526;50.948;6.590;2023-04-23T09:24:13;6.82;;;2.00;;
74170;SDS011;62526;50.948;6.590;2023-04-23T09:26:43;6.12;;;2.17;;
74170;SDS011;62526;50.948;6.590;2023-04-23T09:29:14;6.87;;;2.37;;
74170;SDS011;62526;50.948;6.590;2023-04-23T09:31:41;4.95;;;2.08;;
74170;SDS011;62526;50.948;6.590;2023-04-23T09:34:08;4.93;;;1.65;;
74170;SDS011;62526;50.948;6.590;2023-04-23T09:36:35;3.90;;;1.65;;
74170;SDS011;62526;50.948;6.590;2023-04-23T09:39:02;5.40;;;1.80;;
74170;SDS011;62526;50.948;6.590;2023-04-23T09:41:28;5.65;;;1.77;;
74170;SDS011;62526;50.948;6.590;2023-04-23T09:43:55;5.10;;;1.52;;
74170;SDS011;62526;50.948;6.590;2023-04-23T09:49:02;4.75;;;1.75;;
74170;SDS011;62526;50.948;6.590;2023-04-23T09:51:28;2.67;;;1.60;;
74170;SDS011;62526;50.948;6.590;2023-04-23T09:53:54;4.87;;;1.65;;
74170;SDS011;62526;50.948;6.590;2023-04-23T09:56:21;4.45;;;1.62;;
74170;SDS011;62526;50.948;6.590;2023-04-23T09:58:47;3.35;;;1.60;;
74170;SDS011;62526;50.948;6.590;2023-04-23T10:01:14;3.83;;;2.00;;
74170;SDS011;62526;50.948;6.590;2023-04-23T10:03:41;2.72;;;1.65;;
74170;SDS011;62526;50.948;6.590;2023-04-23T10:06:07;6.12;;;1.55;;
74170;SDS011;62526;50.948;6.590;2023-04-23T10:08:34;4.12;;;1.70;;
74170;SDS011;62526;50.948;6.590;2023-04-23T10:11:00;3.42;;;1.48;;
74170;SDS011;62526;50.948;6.590;2023-04-23T10:13:27;4.62;;;1.50;;
74170;SDS011;62526;50.948;6.590;2023-04-23T10:15:53;5.40;;;1.92;;
74170;SDS011;62526;50.948;6.590;2023-04-23T10:18:20;5.70;;;2.00;;
74170;SDS011;62526;50.948;6.590;2023-04-23T10:20:48;4.70;;;1.37;;
74170;SDS011;62526;50.948;6.590;2023-04-23T10:23:13;2.92;;;1.48;;
74170;SDS011;62526;50.948;6.590;2023-04-23T10:25:40;4.80;;;1.92;;
74170;SDS011;62526;50.948;6.590;2023-04-23T10:28:07;6.40;;;1.98;;
74170;SDS011;62526;50.948;6.590;2023-04-23T10:30:34;2.45;;;1.45;;
74170;SDS011;62526;50.948;6.590;2023-04-23T10:33:00;3.47;;;1.40;;
74170;SDS011;62526;50.948;6.590;2023-04-23T10:35:26;4.00;;;1.42;;
74170;SDS011;62526;50.948;6.590;2023-04-23T10:37:53;4.87;;;1.60;;
74170;SDS011;62526;50.948;6.590;2023-04-23T10:40:23;4.55;;;1.90;;
74170;SDS011;62526;50.948;6.590;2023-04-23T10:42:47;5.75;;;2.15;;
74170;SDS011;62526;50.948;6.590;2023-04-23T10:45:15;6.22;;;1.65;;
74170;SDS011;62526;50.948;6.590;2023-04-23T10:47:42;2.85;;;1.40;;
74170;SDS011;62526;50.948;6.590;2023-04-23T10:52:49;3.80;;;1.62;;
74170;SDS011;62526;50.948;6.590;2023-04-23T10:55:17;4.10;;;1.45;;
74170;SDS011;62526;50.948;6.590;2023-04-23T10:58:14;3.85;;;1.50;;
74170;SDS011;62526;50.948;6.590;2023-04-23T11:05:51;5.80;;;2.17;;
74170;SDS011;62526;50.948;6.590;2023-04-23T11:08:18;3.35;;;1.55;;
74170;SDS011;62526;50.948;6.590;2023-04-23T11:10:53;2.40;;;1.50;;
74170;SDS011;62526;50.948;6.590;2023-04-23T11:13:22;3.22;;;1.30;;
74170;SDS011;62526;50.948;6.590;2023-04-23T11:16:10;5.65;;;1.80;;
74170;SDS011;62526;50.948;6.590;2023-04-23T11:18:22;1.67;;;1.33;;
74170;SDS011;62526;50.948;6.590;2023-04-23T11:20:48;3.12;;;1.60;;
74170;SDS011;62526;50.948;6.590;2023-04-23T11:23:27;3.17;;;1.37;;
74170;SDS011;62526;50.948;6.590;2023-04-23T11:25:48;4.80;;;1.60;;
74170;SDS011;62526;50.948;6.590;2023-04-23T11:28:14;4.85;;;1.58;;
74170;SDS011;62526;50.948;6.590;2023-04-23T11:30:41;3.47;;;1.50;;
74170;SDS011;62526;50.948;6.590;2023-04-23T11:35:53;2.55;;;1.60;;
74170;SDS011;62526;50.948;6.590;2023-04-23T11:38:19;10.93;;;1.50;;
74170;SDS011;62526;50.948;6.590;2023-04-23T11:40:46;4.43;;;1.75;;
74170;SDS011;62526;50.948;6.590;2023-04-23T11:43:17;5.50;;;1.60;;
74170;SDS011;62526;50.948;6.590;2023-04-23T11:45:39;3.10;;;1.48;;
74170;SDS011;62526;50.948;6.590;2023-04-23T11:48:06;5.03;;;1.50;;
74170;SDS011;62526;50.948;6.590;2023-04-23T11:50:32;4.12;;;1.62;;
74170;SDS011;62526;50.948;6.590;2023-04-23T11:53:04;5.90;;;1.30;;
74170;SDS011;62526;50.948;6.590;2023-04-23T11:55:30;5.28;;;1.77;;
74170;SDS011;62526;50.948;6.590;2023-04-23T11:57:57;6.50;;;2.03;;
74170;SDS011;62526;50.948;6.590;2023-04-23T12:00:25;4.90;;;1.35;;
74170;SDS011;62526;50.948;6.590;2023-04-23T12:02:53;3.72;;;1.50;;
74170;SDS011;62526;50.948;6.590;2023-04-23T12:05:22;2.28;;;1.25;;
74170;SDS011;62526;50.948;6.590;2023-04-23T12:10:43;3.10;;;1.55;;
74170;SDS011;62526;50.948;6.590;2023-04-23T12:13:15;2.62;;;1.48;;
74170;SDS011;62526;50.948;6.590;2023-04-23T12:15:44;3.55;;;1.95;;
74170;SDS011;62526;50.948;6.590;2023-04-23T12:18:10;3.70;;;1.60;;
74170;SDS011;62526;50.948;6.590;2023-04-23T12:20:36;3.17;;;1.62;;
74170;SDS011;62526;50.948;6.590;2023-04-23T12:23:03;2.90;;;1.45;;
74170;SDS011;62526;50.948;6.590;2023-04-23T12:25:29;4.22;;;1.60;;
74170;SDS011;62526;50.948;6.590;2023-04-23T12:27:57;4.03;;;1.62;;
74170;SDS011;62526;50.948;6.590;2023-04-23T12:30:27;3.85;;;1.65;;
74170;SDS011;62526;50.948;6.590;2023-04-23T12:33:00;4.45;;;1.60;;
74170;SDS011;62526;50.948;6.590;2023-04-23T12:35:43;1.95;;;1.42;;
74170;SDS011;62526;50.948;6.590;2023-04-23T12:38:20;3.05;;;1.37;;
74170;SDS011;62526;50.948;6.590;2023-04-23T12:40:46;3.05;;;1.23;;
74170;SDS011;62526;50.948;6.590;2023-04-23T12:43:13;3.75;;;1.70;;
74170;SDS011;62526;50.948;6.590;2023-04-23T12:45:40;4.93;;;1.52;;
74170;SDS011;62526;50.948;6.590;2023-04-23T12:48:06;2.08;;;1.60;;
74170;SDS011;62526;50.948;6.590;2023-04-23T12:50:33;3.97;;;1.52;;
74170;SDS011;62526;50.948;6.590;2023-04-23T12:52:59;4.37;;;2.08;;
74170;SDS011;62526;50.948;6.590;2023-04-23T12:55:26;4.07;;;1.60;;
74170;SDS011;62526;50.948;6.590;2023-04-23T12:57:53;3.83;;;1.70;;
74170;SDS011;62526;50.948;6.590;2023-04-23T13:00:21;4.22;;;1.73;;
74170;SDS011;62526;50.948;6.590;2023-04-23T13:02:46;4.40;;;1.60;;
74170;SDS011;62526;50.948;6.590;2023-04-23T13:05:13;3.28;;;1.48;;
74170;SDS011;62526;50.948;6.590;2023-04-23T13:07:39;3.83;;;1.50;;
74170;SDS011;62526;50.948;6.590;2023-04-23T13:10:06;3.03;;;1.45;;
74170;SDS011;62526;50.948;6.590;2023-04-23T13:12:33;5.85;;;1.75;;
74170;SDS011;62526;50.948;6.590;2023-04-23T13:15:00;6.20;;;1.65;;
74170;SDS011;62526;50.948;6.590;2023-04-23T13:17:26;1.73;;;1.20;;
74170;SDS011;62526;50.948;6.590;2023-04-23T13:19:53;3.95;;;1.50;;
74170;SDS011;62526;50.948;6.590;2023-04-23T13:22:20;3.55;;;1.48;;
74170;SDS011;62526;50.948;6.590;2023-04-23T13:24:46;3.67;;;1.35;;
74170;SDS011;62526;50.948;6.590;2023-04-23T13:27:13;3.05;;;1.50;;
74170;SDS011;62526;50.948;6.590;2023-04-23T13:29:39;3.00;;;1.40;;
74170;SDS011;62526;50.948;6.590;2023-04-23T13:32:06;3.58;;;1.80;;
74170;SDS011;62526;50.948;6.590;2023-04-23T13:34:33;2.85;;;1.42;;
74170;SDS011;62526;50.948;6.590;2023-04-23T13:36:59;6.45;;;1.70;;
74170;SDS011;62526;50.948;6.590;2023-04-23T13:39:26;3.50;;;1.40;;
74170;SDS011;62526;50.948;6.590;2023-04-23T13:41:52;3.08;;;1.50;;
74170;SDS011;62526;50.948;6.590;2023-04-23T13:44:19;3.47;;;1.30;;
74170;SDS011;62526;50.948;6.590;2023-04-23T13:46:46;4.20;;;1.42;;
74170;SDS011;62526;50.948;6.590;2023-04-23T13:49:12;3.37;;;1.50;;
74170;SDS011;62526;50.948;6.590;2023-04-23T13:51:39;2.55;;;1.73;;
74170;SDS011;62526;50.948;6.590;2023-04-23T13:54:06;1.85;;;1.60;;
74170;SDS011;62526;50.948;6.590;2023-04-23T13:56:32;5.70;;;1.85;;
74170;SDS011;62526;50.948;6.590;2023-04-23T13:58:59;4.12;;;1.67;;
74170;SDS011;62526;50.948;6.590;2023-04-23T14:01:25;3.60;;;1.52;;
74170;SDS011;62526;50.948;6.590;2023-04-23T14:03:52;2.45;;;1.55;;
74170;SDS011;62526;50.948;6.590;2023-04-23T14:06:19;2.75;;;1.50;;
74170;SDS011;62526;50.948;6.590;2023-04-23T14:08:46;2.85;;;1.50;;
74170;SDS011;62526;50.948;6.590;2023-04-23T14:11:13;1.98;;;1.35;;
74170;SDS011;62526;50.948;6.590;2023-04-23T14:13:40;5.20;;;1.60;;
74170;SDS011;62526;50.948;6.590;2023-04-23T14:16:06;3.55;;;1.80;;
74170;SDS011;62526;50.948;6.590;2023-04-23T14:18:33;4.80;;;1.90;;
74170;SDS011;62526;50.948;6.590;2023-04-23T14:20:59;2.72;;;1.70;;
74170;SDS011;62526;50.948;6.590;2023-04-23T14:24:06;2.17;;;1.50;;
74170;SDS011;62526;50.948;6.590;2023-04-23T14:26:31;7.15;;;1.60;;
74170;SDS011;62526;50.948;6.590;2023-04-23T14:29:02;2.12;;;1.37;;
74170;SDS011;62526;50.948;6.590;2023-04-23T14:31:28;3.33;;;1.85;;
74170;SDS011;62526;50.948;6.590;2023-04-23T14:33:55;2.85;;;1.50;;
74170;SDS011;62526;50.948;6.590;2023-04-23T14:36:22;3.65;;;1.40;;
74170;SDS011;62526;50.948;6.590;2023-04-23T14:38:49;5.55;;;1.60;;
74170;SDS011;62526;50.948;6.590;2023-04-23T14:41:15;4.03;;;1.45;;
74170;SDS011;62526;50.948;6.590;2023-04-23T14:43:42;2.78;;;1.60;;
74170;SDS011;62526;50.948;6.590;2023-04-23T14:46:09;7.00;;;1.80;;
74170;SDS011;62526;50.948;6.590;2023-04-23T14:48:35;3.45;;;1.73;;
74170;SDS011;62526;50.948;6.590;2023-04-23T14:51:02;3.05;;;1.65;;
74170;SDS011;62526;50.948;6.590;2023-04-23T14:53:29;4.95;;;1.95;;
74170;SDS011;62526;50.948;6.590;2023-04-23T14:55:55;5.50;;;1.98;;
74170;SDS011;62526;50.948;6.590;2023-04-23T14:58:22;2.47;;;1.75;;
74170;SDS011;62526;50.948;6.590;2023-04-23T15:00:49;7.03;;;2.05;;